sensor_id;sensor_type;location;lat;lon;timestamp;pressure;altitude;pressure_sealevel;temperature;humidity
28354;BME280;15603;50.878;8.036;2023-12-04T00:01:30;140967.44;;;-9.83;100.00
28354;BME280;15603;50.878;8.036;2023-12-04T00:03:57;140960.25;;;-9.86;100.00
28354;BME280;15603;50.878;8.036;2023-12-04T00:06:24;140988.94;;;-9.74;100.00
28354;BME280;15603;50.878;8.036;2023-12-04T00:08:51;140943.50;;;-9.93;100.00
28354;BME280;15603;50.878;8.036;2023-12-04T00:11:19;140953.06;;;-9.89;100.00
28354;BME280;15603;50.878;8.036;2023-12-04T00:13:46;140971.00;;;-9.81;100.00
28354;BME280;15603;50.878;8.036;2023-12-04T00:16:13;140965.03;;;-9.84;100.00
28354;BME280;15603;50.878;8.036;2023-12-04T00:18:40;140986.56;;;-9.75;100.00
28354;BME280;15603;50.878;8.036;2023-12-04T00:21:07;140981.78;;;-9.77;100.00
28354;BME280;15603;50.878;8.036;2023-12-04T00:23:35;140978.19;;;-9.78;100.00
28354;BME280;15603;50.878;8.036;2023-12-04T00:26:02;140949.50;;;-9.91;100.00
28354;BME280;15603;50.878;8.036;2023-12-04T00:28:29;140821.63;;;-10.45;100.00
28354;BME280;15603;50.878;8.036;2023-12-04T00:30:56;140972.22;;;-9.81;100.00
28354;BME280;15603;50.878;8.036;2023-12-04T00:33:23;140953.06;;;-9.89;100.00
28354;BME280;15603;50.878;8.036;2023-12-04T00:35:51;140951.88;;;-9.90;100.00
28354;BME280;15603;50.878;8.036;2023-12-04T00:38:18;140979.38;;;-9.78;100.00
28354;BME280;15603;50.878;8.036;2023-12-04T00:40:45;140967.44;;;-9.83;100.00
28354;BME280;15603;50.878;8.036;2023-12-04T00:43:12;140975.81;;;-9.79;100.00
28354;BME280;15603;50.878;8.036;2023-12-04T00:45:40;140974.59;;;-9.80;100.00
28354;BME280;15603;50.878;8.036;2023-12-04T00:48:07;140972.22;;;-9.81;100.00
28354;BME280;15603;50.878;8.036;2023-12-04T00:50:34;140962.66;;;-9.85;100.00
28354;BME280;15603;50.878;8.036;2023-12-04T00:53:01;140963.84;;;-9.84;100.00
28354;BME280;15603;50.878;8.036;2023-12-04T00:55:28;140969.81;;;-9.82;100.00
28354;BME280;15603;50.878;8.036;2023-12-04T00:57:57;140950.69;;;-9.90;100.00
28354;BME280;15603;50.878;8.036;2023-12-04T01:00:24;140956.66;;;-9.88;100.00
28354;BME280;15603;50.878;8.036;2023-12-04T01:02:51;140967.44;;;-9.83;100.00
28354;BME280;15603;50.878;8.036;2023-12-04T01:05:18;140945.91;;;-9.92;100.00
28354;BME280;15603;50.878;8.036;2023-12-04T01:07:46;140927.97;;;-10.00;100.00
28354;BME280;15603;50.878;8.036;2023-12-04T01:10:13;140918.41;;;-10.04;100.00
28354;BME280;15603;50.878;8.036;2023-12-04T01:12:40;140918.41;;;-10.04;100.00
28354;BME280;15603;50.878;8.036;2023-12-04T01:15:08;140919.59;;;-10.03;100.00
28354;BME280;15603;50.878;8.036;2023-12-04T01:17:36;140917.19;;;-10.04;100.00
28354;BME280;15603;50.878;8.036;2023-12-04T01:20:04;140936.34;;;-9.96;100.00
28354;BME280;15603;50.878;8.036;2023-12-04T01:22:31;140957.88;;;-9.87;100.00
28354;BME280;15603;50.878;8.036;2023-12-04T01:24:58;140752.31;;;-10.75;100.00
28354;BME280;15603;50.878;8.036;2023-12-04T01:27:26;140950.69;;;-9.90;100.00
28354;BME280;15603;50.878;8.036;2023-12-04T01:29:53;140948.28;;;-9.91;100.00
28354;BME280;15603;50.878;8.036;2023-12-04T01:32:20;140953.06;;;-9.89;100.00
28354;BME280;15603;50.878;8.036;2023-12-04T01:34:49;140962.66;;;-9.85;100.00
28354;BME280;15603;50.878;8.036;2023-12-04T01:37:16;140942.31;;;-9.94;100.00
28354;BME280;15603;50.878;8.036;2023-12-04T01:39:43;140943.50;;;-9.93;100.00
28354;BME280;15603;50.878;8.036;2023-12-04T01:42:11;140959.06;;;-9.87;100.00
28354;BME280;15603;50.878;8.036;2023-12-04T01:44:38;140962.66;;;-9.85;100.00
28354;BME280;15603;50.878;8.036;2023-12-04T01:47:05;140945.91;;;-9.92;100.00
28354;BME280;15603;50.878;8.036;2023-12-04T01:49:34;140957.88;;;-9.87;100.00
28354;BME280;15603;50.878;8.036;2023-12-04T01:52:02;140943.50;;;-9.93;100.00
28354;BME280;15603;50.878;8.036;2023-12-04T01:54:30;140961.44;;;-9.85;100.00
28354;BME280;15603;50.878;8.036;2023-12-04T01:56:58;140961.44;;;-9.85;100.00
28354;BME280;15603;50.878;8.036;2023-12-04T01:59:25;140962.66;;;-9.85;100.00
28354;BME280;15603;50.878;8.036;2023-12-04T02:01:53;140978.19;;;-9.78;100.00
28354;BME280;15603;50.878;8.036;2023-12-04T02:04:21;140965.03;;;-9.84;100.00
28354;BME280;15603;50.878;8.036;2023-12-04T02:06:49;140962.66;;;-9.85;100.00
28354;BME280;15603;50.878;8.036;2023-12-04T02:09:16;140953.06;;;-9.89;100.00
28354;BME280;15603;50.878;8.036;2023-12-04T02:11:43;140972.22;;;-9.81;100.00
28354;BME280;15603;50.878;8.036;2023-12-04T02:14:10;140936.34;;;-9.96;100.00
28354;BME280;15603;50.878;8.036;2023-12-04T02:16:42;140945.91;;;-9.92;100.00
28354;BME280;15603;50.878;8.036;2023-12-04T02:19:13;140948.28;;;-9.91;100.00
28354;BME280;15603;50.878;8.036;2023-12-04T02:21:41;140936.34;;;-9.96;100.00
28354;BME280;15603;50.878;8.036;2023-12-04T02:24:09;140900.47;;;-10.12;100.00
28354;BME280;15603;50.878;8.036;2023-12-04T02:26:56;140814.47;;;-10.49;100.00
28354;BME280;15603;50.878;8.036;2023-12-04T02:29:35;140910.03;;;-10.08;100.00
28354;BME280;15603;50.878;8.036;2023-12-04T02:32:05;140857.47;;;-10.30;100.00
28354;BME280;15603;50.878;8.036;2023-12-04T02:34:35;140929.16;;;-9.99;100.00
28354;BME280;15603;50.878;8.036;2023-12-04T02:37:04;140900.47;;;-10.12;100.00
28354;BME280;15603;50.878;8.036;2023-12-04T02:39:32;140900.47;;;-10.12;100.00
28354;BME280;15603;50.878;8.036;2023-12-04T02:41:59;140907.63;;;-10.09;100.00
28354;BME280;15603;50.878;8.036;2023-12-04T02:44:26;140910.03;;;-10.08;100.00
28354;BME280;15603;50.878;8.036;2023-12-04T02:46:54;140914.81;;;-10.05;100.00
28354;BME280;15603;50.878;8.036;2023-12-04T02:49:21;140912.41;;;-10.07;100.00
28354;BME280;15603;50.878;8.036;2023-12-04T02:51:48;140912.41;;;-10.07;100.00
28354;BME280;15603;50.878;8.036;2023-12-04T02:54:16;140924.38;;;-10.01;100.00
28354;BME280;15603;50.878;8.036;2023-12-04T02:56:43;140938.72;;;-9.95;100.00
28354;BME280;15603;50.878;8.036;2023-12-04T02:59:10;140938.72;;;-9.95;100.00
28354;BME280;15603;50.878;8.036;2023-12-04T03:01:37;140941.13;;;-9.94;100.00
28354;BME280;15603;50.878;8.036;2023-12-04T03:04:04;140941.13;;;-9.94;100.00
28354;BME280;15603;50.878;8.036;2023-12-04T03:06:31;140956.66;;;-9.88;100.00
28354;BME280;15603;50.878;8.036;2023-12-04T03:08:59;140926.78;;;-10.00;100.00
28354;BME280;15603;50.878;8.036;2023-12-04T03:11:26;140912.41;;;-10.07;100.00
28354;BME280;15603;50.878;8.036;2023-12-04T03:13:53;140907.63;;;-10.09;100.00
28354;BME280;15603;50.878;8.036;2023-12-04T03:16:20;140929.16;;;-9.99;100.00
28354;BME280;15603;50.878;8.036;2023-12-04T03:18:48;140919.59;;;-10.03;100.00
28354;BME280;15603;50.878;8.036;2023-12-04T03:21:15;140886.16;;;-10.18;100.00
28354;BME280;15603;50.878;8.036;2023-12-04T03:23:42;140862.22;;;-10.28;100.00
28354;BME280;15603;50.878;8.036;2023-12-04T03:26:09;140907.63;;;-10.09;100.00
28354;BME280;15603;50.878;8.036;2023-12-04T03:28:38;140900.47;;;-10.12;100.00
28354;BME280;15603;50.878;8.036;2023-12-04T03:31:07;140895.69;;;-10.14;100.00
28354;BME280;15603;50.878;8.036;2023-12-04T03:33:34;140896.88;;;-10.13;100.00
28354;BME280;15603;50.878;8.036;2023-12-04T03:36:02;140806.09;;;-10.52;100.00
28354;BME280;15603;50.878;8.036;2023-12-04T03:38:29;140896.88;;;-10.13;100.00
28354;BME280;15603;50.878;8.036;2023-12-04T03:40:57;140908.84;;;-10.08;100.00
28354;BME280;15603;50.878;8.036;2023-12-04T03:43:24;140900.47;;;-10.12;100.00
28354;BME280;15603;50.878;8.036;2023-12-04T03:45:51;140893.28;;;-10.15;100.00
28354;BME280;15603;50.878;8.036;2023-12-04T03:48:18;140887.31;;;-10.17;100.00
28354;BME280;15603;50.878;8.036;2023-12-04T03:50:46;140877.78;;;-10.21;100.00
28354;BME280;15603;50.878;8.036;2023-12-04T03:53:15;140874.19;;;-10.23;100.00
28354;BME280;15603;50.878;8.036;2023-12-04T03:55:42;140890.91;;;-10.16;100.00
28354;BME280;15603;50.878;8.036;2023-12-04T03:58:09;140871.75;;;-10.24;100.00
28354;BME280;15603;50.878;8.036;2023-12-04T04:00:36;140887.31;;;-10.17;100.00
28354;BME280;15603;50.878;8.036;2023-12-04T04:03:09;140863.38;;;-10.28;100.00
28354;BME280;15603;50.878;8.036;2023-12-04T04:05:36;140883.72;;;-10.19;100.00
28354;BME280;15603;50.878;8.036;2023-12-04T04:08:04;140862.22;;;-10.28;100.00
28354;BME280;15603;50.878;8.036;2023-12-04T04:10:33;140883.72;;;-10.19;100.00
28354;BME280;15603;50.878;8.036;2023-12-04T04:13:00;140871.75;;;-10.24;100.00
28354;BME280;15603;50.878;8.036;2023-12-04T04:15:27;140757.09;;;-10.73;100.00
28354;BME280;15603;50.878;8.036;2023-12-04T04:17:55;140850.31;;;-10.33;100.00
28354;BME280;15603;50.878;8.036;2023-12-04T04:20:23;140866.97;;;-10.26;100.00
28354;BME280;15603;50.878;8.036;2023-12-04T04:22:50;140839.53;;;-10.38;100.00
28354;BME280;15603;50.878;8.036;2023-12-04T04:25:18;140824.03;;;-10.44;100.00
28354;BME280;15603;50.878;8.036;2023-12-04T04:27:45;140866.97;;;-10.26;100.00
28354;BME280;15603;50.878;8.036;2023-12-04T04:30:13;140874.19;;;-10.23;100.00
28354;BME280;15603;50.878;8.036;2023-12-04T04:32:40;140869.41;;;-10.25;100.00
28354;BME280;15603;50.878;8.036;2023-12-04T04:35:08;140865.81;;;-10.27;100.00
28354;BME280;15603;50.878;8.036;2023-12-04T04:37:35;140715.25;;;-10.91;100.00
28354;BME280;15603;50.878;8.036;2023-12-04T04:40:03;140833.59;;;-10.40;100.00
28354;BME280;15603;50.878;8.036;2023-12-04T04:42:30;140845.50;;;-10.35;100.00
28354;BME280;15603;50.878;8.036;2023-12-04T04:44:58;140827.56;;;-10.43;100.00
28354;BME280;15603;50.878;8.036;2023-12-04T04:47:25;140870.59;;;-10.24;100.00
28354;BME280;15603;50.878;8.036;2023-12-04T04:49:52;140826.41;;;-10.43;100.00
28354;BME280;15603;50.878;8.036;2023-12-04T04:52:20;140859.84;;;-10.29;100.00
28354;BME280;15603;50.878;8.036;2023-12-04T04:54:48;140873.00;;;-10.23;100.00
28354;BME280;15603;50.878;8.036;2023-12-04T04:57:15;140898.06;;;-10.13;100.00
28354;BME280;15603;50.878;8.036;2023-12-04T04:59:42;140904.06;;;-10.10;100.00
28354;BME280;15603;50.878;8.036;2023-12-04T05:02:09;140906.44;;;-10.09;100.00
28354;BME280;15603;50.878;8.036;2023-12-04T05:04:36;140886.16;;;-10.18;100.00
28354;BME280;15603;50.878;8.036;2023-12-04T05:07:04;140886.16;;;-10.18;100.00
28354;BME280;15603;50.878;8.036;2023-12-04T05:09:31;140861.03;;;-10.29;100.00
28354;BME280;15603;50.878;8.036;2023-12-04T05:11:58;140888.50;;;-10.17;100.00
28354;BME280;15603;50.878;8.036;2023-12-04T05:14:26;140864.63;;;-10.27;100.00
28354;BME280;15603;50.878;8.036;2023-12-04T05:16:55;140845.50;;;-10.35;100.00
28354;BME280;15603;50.878;8.036;2023-12-04T05:19:22;140864.63;;;-10.27;100.00
28354;BME280;15603;50.878;8.036;2023-12-04T05:21:49;140734.41;;;-10.83;100.00
28354;BME280;15603;50.878;8.036;2023-12-04T05:24:16;140857.47;;;-10.30;100.00
28354;BME280;15603;50.878;8.036;2023-12-04T05:26:43;140833.59;;;-10.40;100.00
28354;BME280;15603;50.878;8.036;2023-12-04T05:29:10;140800.09;;;-10.55;100.00
28354;BME280;15603;50.878;8.036;2023-12-04T05:31:38;140828.81;;;-10.42;100.00
28354;BME280;15603;50.878;8.036;2023-12-04T05:34:05;140845.50;;;-10.35;100.00
28354;BME280;15603;50.878;8.036;2023-12-04T05:36:32;140832.41;;;-10.41;100.00
28354;BME280;15603;50.878;8.036;2023-12-04T05:38:59;140816.84;;;-10.48;100.00
28354;BME280;15603;50.878;8.036;2023-12-04T05:41:27;140807.28;;;-10.52;100.00
28354;BME280;15603;50.878;8.036;2023-12-04T05:43:54;140839.53;;;-10.38;100.00
28354;BME280;15603;50.878;8.036;2023-12-04T05:46:22;140812.06;;;-10.50;100.00
28354;BME280;15603;50.878;8.036;2023-12-04T05:48:50;140786.94;;;-10.60;100.00
28354;BME280;15603;50.878;8.036;2023-12-04T05:51:17;140800.09;;;-10.55;100.00
28354;BME280;15603;50.878;8.036;2023-12-04T05:53:44;140729.63;;;-10.85;100.00
28354;BME280;15603;50.878;8.036;2023-12-04T05:56:11;140785.75;;;-10.61;100.00
28354;BME280;15603;50.878;8.036;2023-12-04T05:58:39;140771.44;;;-10.67;100.00
28354;BME280;15603;50.878;8.036;2023-12-04T06:01:06;140792.94;;;-10.58;100.00
28354;BME280;15603;50.878;8.036;2023-12-04T06:03:33;140789.34;;;-10.59;100.00
28354;BME280;15603;50.878;8.036;2023-12-04T06:06:00;140779.81;;;-10.63;100.00
28354;BME280;15603;50.878;8.036;2023-12-04T06:08:31;140816.84;;;-10.48;100.00
28354;BME280;15603;50.878;8.036;2023-12-04T06:10:58;140788.19;;;-10.60;100.00
28354;BME280;15603;50.878;8.036;2023-12-04T06:13:26;140766.66;;;-10.69;100.00
28354;BME280;15603;50.878;8.036;2023-12-04T06:15:53;140771.44;;;-10.67;100.00
28354;BME280;15603;50.878;8.036;2023-12-04T06:18:20;140773.84;;;-10.66;100.00
28354;BME280;15603;50.878;8.036;2023-12-04T06:20:48;140668.69;;;-11.11;100.00
28354;BME280;15603;50.878;8.036;2023-12-04T06:23:16;140772.63;;;-10.67;100.00
28354;BME280;15603;50.878;8.036;2023-12-04T06:25:43;140763.06;;;-10.71;100.00
28354;BME280;15603;50.878;8.036;2023-12-04T06:28:10;140761.88;;;-10.71;100.00
28354;BME280;15603;50.878;8.036;2023-12-04T06:30:38;140797.72;;;-10.56;100.00
28354;BME280;15603;50.878;8.036;2023-12-04T06:33:06;140749.91;;;-10.76;100.00
28354;BME280;15603;50.878;8.036;2023-12-04T06:35:34;140732.00;;;-10.84;100.00
28354;BME280;15603;50.878;8.036;2023-12-04T06:38:06;140722.44;;;-10.88;100.00
28354;BME280;15603;50.878;8.036;2023-12-04T06:40:34;140606.59;;;-11.38;100.00
28354;BME280;15603;50.878;8.036;2023-12-04T06:43:02;140723.63;;;-10.88;100.00
28354;BME280;15603;50.878;8.036;2023-12-04T06:45:29;140709.31;;;-10.94;100.00
28354;BME280;15603;50.878;8.036;2023-12-04T06:47:59;140604.22;;;-11.39;100.00
28354;BME280;15603;50.878;8.036;2023-12-04T06:50:27;140705.72;;;-10.95;100.00
28354;BME280;15603;50.878;8.036;2023-12-04T06:52:54;140708.13;;;-10.94;100.00
28354;BME280;15603;50.878;8.036;2023-12-04T06:55:22;140710.47;;;-10.93;100.00
28354;BME280;15603;50.878;8.036;2023-12-04T06:57:50;140692.56;;;-11.01;100.00
28354;BME280;15603;50.878;8.036;2023-12-04T07:00:18;140659.13;;;-11.15;100.00
28354;BME280;15603;50.878;8.036;2023-12-04T07:02:49;140687.78;;;-11.03;100.00
28354;BME280;15603;50.878;8.036;2023-12-04T07:05:18;140692.56;;;-11.01;100.00
28354;BME280;15603;50.878;8.036;2023-12-04T07:07:46;140706.94;;;-10.95;100.00
28354;BME280;15603;50.878;8.036;2023-12-04T07:10:13;140692.56;;;-11.01;100.00
28354;BME280;15603;50.878;8.036;2023-12-04T07:12:42;140659.13;;;-11.15;100.00
28354;BME280;15603;50.878;8.036;2023-12-04T07:15:11;140729.63;;;-10.85;100.00
28354;BME280;15603;50.878;8.036;2023-12-04T07:17:39;140715.25;;;-10.91;100.00
28354;BME280;15603;50.878;8.036;2023-12-04T07:20:07;140726.03;;;-10.87;100.00
28354;BME280;15603;50.878;8.036;2023-12-04T07:22:35;140738.00;;;-10.81;100.00
28354;BME280;15603;50.878;8.036;2023-12-04T07:25:06;140565.97;;;-11.55;100.00
28354;BME280;15603;50.878;8.036;2023-12-04T07:27:36;140749.91;;;-10.76;100.00
28354;BME280;15603;50.878;8.036;2023-12-04T07:30:04;140752.31;;;-10.75;100.00
28354;BME280;15603;50.878;8.036;2023-12-04T07:32:31;140757.09;;;-10.73;100.00
28354;BME280;15603;50.878;8.036;2023-12-04T07:34:59;140766.66;;;-10.69;100.00
28354;BME280;15603;50.878;8.036;2023-12-04T07:37:27;140746.31;;;-10.78;100.00
28354;BME280;15603;50.878;8.036;2023-12-04T07:39:57;140789.34;;;-10.59;100.00
28354;BME280;15603;50.878;8.036;2023-12-04T07:42:25;140802.50;;;-10.54;100.00
28354;BME280;15603;50.878;8.036;2023-12-04T07:44:52;140798.91;;;-10.55;100.00
28354;BME280;15603;50.878;8.036;2023-12-04T07:47:20;140773.84;;;-10.66;100.00
28354;BME280;15603;50.878;8.036;2023-12-04T07:49:47;140807.28;;;-10.52;100.00
28354;BME280;15603;50.878;8.036;2023-12-04T07:52:14;140824.03;;;-10.44;100.00
28354;BME280;15603;50.878;8.036;2023-12-04T07:54:42;140834.78;;;-10.40;100.00
28354;BME280;15603;50.878;8.036;2023-12-04T07:57:09;140840.72;;;-10.37;99.96
28354;BME280;15603;50.878;8.036;2023-12-04T07:59:36;140819.25;;;-10.47;98.80
28354;BME280;15603;50.878;8.036;2023-12-04T08:02:03;140845.50;;;-10.35;99.58
28354;BME280;15603;50.878;8.036;2023-12-04T08:04:31;140726.03;;;-10.87;98.71
28354;BME280;15603;50.878;8.036;2023-12-04T08:06:58;140826.41;;;-10.43;98.98
28354;BME280;15603;50.878;8.036;2023-12-04T08:09:26;140883.72;;;-10.19;98.05
28354;BME280;15603;50.878;8.036;2023-12-04T08:11:53;140808.47;;;-10.51;97.92
28354;BME280;15603;50.878;8.036;2023-12-04T08:14:24;140853.88;;;-10.32;97.39
28354;BME280;15603;50.878;8.036;2023-12-04T08:16:51;140907.63;;;-10.09;97.86
28354;BME280;15603;50.878;8.036;2023-12-04T08:19:18;140918.41;;;-10.04;97.64
28354;BME280;15603;50.878;8.036;2023-12-04T08:21:45;140953.06;;;-9.89;96.44
28354;BME280;15603;50.878;8.036;2023-12-04T08:24:13;140944.72;;;-9.93;96.30
28354;BME280;15603;50.878;8.036;2023-12-04T08:26:40;140974.59;;;-9.80;95.41
28354;BME280;15603;50.878;8.036;2023-12-04T08:29:07;140972.22;;;-9.81;96.11
28354;BME280;15603;50.878;8.036;2023-12-04T08:31:34;140969.81;;;-9.82;95.02
28354;BME280;15603;50.878;8.036;2023-12-04T08:34:01;140953.06;;;-9.89;95.66
28354;BME280;15603;50.878;8.036;2023-12-04T08:36:29;140959.06;;;-9.87;95.93
28354;BME280;15603;50.878;8.036;2023-12-04T08:39:10;140962.66;;;-9.85;95.11
28354;BME280;15603;50.878;8.036;2023-12-04T08:41:37;140977.00;;;-9.79;94.04
28354;BME280;15603;50.878;8.036;2023-12-04T08:44:07;140962.66;;;-9.85;94.95
28354;BME280;15603;50.878;8.036;2023-12-04T08:46:34;140957.88;;;-9.87;94.77
28354;BME280;15603;50.878;8.036;2023-12-04T08:49:02;140978.19;;;-9.78;94.80
28354;BME280;15603;50.878;8.036;2023-12-04T08:51:29;141010.47;;;-9.64;95.09
28354;BME280;15603;50.878;8.036;2023-12-04T08:53:56;141012.88;;;-9.63;95.06
28354;BME280;15603;50.878;8.036;2023-12-04T08:56:23;141036.78;;;-9.53;94.63
28354;BME280;15603;50.878;8.036;2023-12-04T08:58:57;141039.19;;;-9.52;93.42
28354;BME280;15603;50.878;8.036;2023-12-04T09:01:25;141049.94;;;-9.48;93.30
28354;BME280;15603;50.878;8.036;2023-12-04T09:03:52;141053.53;;;-9.46;92.54
28354;BME280;15603;50.878;8.036;2023-12-04T09:06:19;141036.78;;;-9.53;91.64
28354;BME280;15603;50.878;8.036;2023-12-04T09:09:07;141027.22;;;-9.57;91.89
28354;BME280;15603;50.878;8.036;2023-12-04T09:11:42;141035.59;;;-9.54;92.51
28354;BME280;15603;50.878;8.036;2023-12-04T09:14:10;140996.13;;;-9.71;93.21
28354;BME280;15603;50.878;8.036;2023-12-04T09:16:38;141028.41;;;-9.57;93.48
28354;BME280;15603;50.878;8.036;2023-12-04T09:19:05;141034.41;;;-9.54;94.12
28354;BME280;15603;50.878;8.036;2023-12-04T09:21:32;141055.91;;;-9.45;93.19
28354;BME280;15603;50.878;8.036;2023-12-04T09:24:00;141090.63;;;-9.30;93.80
28354;BME280;15603;50.878;8.036;2023-12-04T09:26:27;141121.72;;;-9.17;93.84
28354;BME280;15603;50.878;8.036;2023-12-04T09:28:54;141118.13;;;-9.18;91.91
28354;BME280;15603;50.878;8.036;2023-12-04T09:31:21;141115.75;;;-9.19;92.50
28354;BME280;15603;50.878;8.036;2023-12-04T09:33:49;141108.56;;;-9.22;92.67
28354;BME280;15603;50.878;8.036;2023-12-04T09:36:16;141115.75;;;-9.19;90.83
28354;BME280;15603;50.878;8.036;2023-12-04T09:38:43;141150.44;;;-9.04;91.53
28354;BME280;15603;50.878;8.036;2023-12-04T09:41:12;141138.50;;;-9.10;90.62
28354;BME280;15603;50.878;8.036;2023-12-04T09:43:40;141121.72;;;-9.17;91.34
28354;BME280;15603;50.878;8.036;2023-12-04T09:46:09;141158.81;;;-9.01;90.57
28354;BME280;15603;50.878;8.036;2023-12-04T09:48:38;141139.69;;;-9.09;91.49
28354;BME280;15603;50.878;8.036;2023-12-04T09:51:07;141132.47;;;-9.12;91.45
28354;BME280;15603;50.878;8.036;2023-12-04T09:53:35;141144.47;;;-9.07;90.75
28354;BME280;15603;50.878;8.036;2023-12-04T09:56:04;141161.22;;;-9.00;89.76
28354;BME280;15603;50.878;8.036;2023-12-04T09:58:31;141152.84;;;-9.03;90.08
28354;BME280;15603;50.878;8.036;2023-12-04T10:01:00;141154.03;;;-9.03;89.96
28354;BME280;15603;50.878;8.036;2023-12-04T10:03:28;141106.19;;;-9.23;88.82
28354;BME280;15603;50.878;8.036;2023-12-04T10:05:57;141148.06;;;-9.05;89.69
28354;BME280;15603;50.878;8.036;2023-12-04T10:08:24;141188.75;;;-8.88;88.70
28354;BME280;15603;50.878;8.036;2023-12-04T10:10:52;141199.50;;;-8.83;87.87
28354;BME280;15603;50.878;8.036;2023-12-04T10:13:19;141197.13;;;-8.84;87.15
28354;BME280;15603;50.878;8.036;2023-12-04T10:16:06;141203.09;;;-8.82;87.28
28354;BME280;15603;50.878;8.036;2023-12-04T10:18:33;141225.84;;;-8.72;88.47
28354;BME280;15603;50.878;8.036;2023-12-04T10:21:01;141266.53;;;-8.55;87.12
28354;BME280;15603;50.878;8.036;2023-12-04T10:23:43;141252.19;;;-8.61;86.65
28354;BME280;15603;50.878;8.036;2023-12-04T10:26:14;141227.06;;;-8.72;87.99
28354;BME280;15603;50.878;8.036;2023-12-04T10:29:02;141247.41;;;-8.63;88.40
28354;BME280;15603;50.878;8.036;2023-12-04T10:31:33;141258.16;;;-8.58;87.97
28354;BME280;15603;50.878;8.036;2023-12-04T10:34:03;141254.59;;;-8.60;87.83
28354;BME280;15603;50.878;8.036;2023-12-04T10:36:37;141280.94;;;-8.48;88.60
28354;BME280;15603;50.878;8.036;2023-12-04T10:39:04;141266.53;;;-8.55;88.37
28354;BME280;15603;50.878;8.036;2023-12-04T10:41:33;141321.59;;;-8.31;88.74
28354;BME280;15603;50.878;8.036;2023-12-04T10:44:00;141316.81;;;-8.33;87.57
28354;BME280;15603;50.878;8.036;2023-12-04T10:46:37;141308.44;;;-8.37;87.57
28354;BME280;15603;50.878;8.036;2023-12-04T10:49:05;141321.59;;;-8.31;87.58
28354;BME280;15603;50.878;8.036;2023-12-04T10:51:33;141323.97;;;-8.30;86.65
28354;BME280;15603;50.878;8.036;2023-12-04T10:54:01;141319.19;;;-8.32;86.27
28354;BME280;15603;50.878;8.036;2023-12-04T10:56:40;141355.09;;;-8.17;86.30
28354;BME280;15603;50.878;8.036;2023-12-04T10:59:11;141376.66;;;-8.07;86.26
28354;BME280;15603;50.878;8.036;2023-12-04T11:01:44;141392.22;;;-8.01;87.13
28354;BME280;15603;50.878;8.036;2023-12-04T11:04:16;141413.78;;;-7.92;85.84
28354;BME280;15603;50.878;8.036;2023-12-04T11:06:47;141314.41;;;-8.34;85.98
28354;BME280;15603;50.878;8.036;2023-12-04T11:09:17;141426.97;;;-7.86;86.21
28354;BME280;15603;50.878;8.036;2023-12-04T11:11:48;141371.88;;;-8.10;85.45
28354;BME280;15603;50.878;8.036;2023-12-04T11:14:20;141347.91;;;-8.20;86.65
28354;BME280;15603;50.878;8.036;2023-12-04T11:17:01;141277.34;;;-8.50;87.75
28354;BME280;15603;50.878;8.036;2023-12-04T11:19:35;141332.34;;;-8.26;88.24
28354;BME280;15603;50.878;8.036;2023-12-04T11:22:07;141286.91;;;-8.46;88.90
28354;BME280;15603;50.878;8.036;2023-12-04T11:24:35;141282.13;;;-8.48;91.36
28354;BME280;15603;50.878;8.036;2023-12-04T11:27:03;141259.38;;;-8.58;92.43
28354;BME280;15603;50.878;8.036;2023-12-04T11:29:31;141249.81;;;-8.62;93.52
28354;BME280;15603;50.878;8.036;2023-12-04T11:31:59;141282.13;;;-8.48;94.24
28354;BME280;15603;50.878;8.036;2023-12-04T11:34:26;141316.81;;;-8.33;95.01
28354;BME280;15603;50.878;8.036;2023-12-04T11:36:53;141321.59;;;-8.31;94.60
28354;BME280;15603;50.878;8.036;2023-12-04T11:39:25;141171.97;;;-8.95;94.71
28354;BME280;15603;50.878;8.036;2023-12-04T11:41:53;141318.00;;;-8.33;95.20
28354;BME280;15603;50.878;8.036;2023-12-04T11:44:20;141355.09;;;-8.17;95.08
28354;BME280;15603;50.878;8.036;2023-12-04T11:46:58;141264.16;;;-8.56;94.24
28354;BME280;15603;50.878;8.036;2023-12-04T11:49:32;141395.81;;;-7.99;93.40
28354;BME280;15603;50.878;8.036;2023-12-04T11:52:00;141424.59;;;-7.87;93.94
28354;BME280;15603;50.878;8.036;2023-12-04T11:54:28;141418.56;;;-7.90;94.21
28354;BME280;15603;50.878;8.036;2023-12-04T11:59:39;141376.66;;;-8.07;94.33
28354;BME280;15603;50.878;8.036;2023-12-04T12:02:08;141431.75;;;-7.84;93.88
28354;BME280;15603;50.878;8.036;2023-12-04T12:04:37;141245.03;;;-8.64;95.77
28354;BME280;15603;50.878;8.036;2023-12-04T12:07:07;141367.09;;;-8.12;95.73
28354;BME280;15603;50.878;8.036;2023-12-04T12:09:34;141335.97;;;-8.25;96.71
28354;BME280;15603;50.878;8.036;2023-12-04T12:12:05;141288.09;;;-8.45;98.18
28354;BME280;15603;50.878;8.036;2023-12-04T12:14:32;141276.09;;;-8.51;98.09
28354;BME280;15603;50.878;8.036;2023-12-04T12:17:00;141223.47;;;-8.73;100.00
28354;BME280;15603;50.878;8.036;2023-12-04T12:19:27;141168.38;;;-8.97;100.00
28354;BME280;15603;50.878;8.036;2023-12-04T12:21:55;141203.09;;;-8.82;100.00
28354;BME280;15603;50.878;8.036;2023-12-04T12:24:26;141182.78;;;-8.91;100.00
28354;BME280;15603;50.878;8.036;2023-12-04T12:26:54;141223.47;;;-8.73;100.00
28354;BME280;15603;50.878;8.036;2023-12-04T12:29:21;141187.56;;;-8.89;100.00
28354;BME280;15603;50.878;8.036;2023-12-04T12:31:50;141199.50;;;-8.83;100.00
28354;BME280;15603;50.878;8.036;2023-12-04T12:34:17;141090.63;;;-9.30;100.00
28354;BME280;15603;50.878;8.036;2023-12-04T12:36:44;141142.09;;;-9.08;100.00
28354;BME280;15603;50.878;8.036;2023-12-04T12:39:12;141170.78;;;-8.96;100.00
28354;BME280;15603;50.878;8.036;2023-12-04T12:41:39;141162.41;;;-8.99;100.00
28354;BME280;15603;50.878;8.036;2023-12-04T12:44:07;141163.59;;;-8.99;100.00
28354;BME280;15603;50.878;8.036;2023-12-04T12:46:34;141154.03;;;-9.03;100.00